Mozu Arrow — C6NI8 — position and weather

sailwx.info

Track history (hours):
 
Tides and Currents Weather Stations Pressure Air Temp Water Temp Dewpoint Dewpoint Depression Visibility Wind Speed Wind Dir Waves Ship Positions

Mozu Arrow

Last reported at 2018-Feb-21 23:22 UTC. Time now 2018-Feb-23 16:47 UTC.
Position S 23°56' W 046°20'.

Length 186 m; draft 9.6 m.

Type: Cargo ship. MMSI: 309372000.

Date/timePositionNaut miles runAvg speedWind from/ knotsBaromVisibWave heightAir tempDewpointWater temp
2018-Feb-21 23:22S 23°56' W 046°20'0 0.0
2018-Feb-21 22:46S 23°56' W 046°20'0 0.0
2018-Feb-21 22:11S 23°56' W 046°20'0 0.0
2018-Feb-21 21:45S 23°56' W 046°20'0 0.0
2018-Feb-21 21:30S 23°56' W 046°20'0 0.0
2018-Feb-21 21:00S 23°56' W 046°20'0 0.0
2018-Feb-21 20:28S 23°56' W 046°20'0 0.0
2018-Feb-21 19:59S 23°56' W 046°20'0 0.0
2018-Feb-21 19:28S 23°56' W 046°20'0 0.0
2018-Feb-21 19:00S 23°56' W 046°20'0 0.0
2018-Feb-21 18:30S 23°56' W 046°20'0 0.0
2018-Feb-21 17:57S 23°56' W 046°20'0 0.0
2018-Feb-21 17:30S 23°56' W 046°20'0 0.0
2018-Feb-21 16:59S 23°56' W 046°20'0 0.0
2018-Feb-21 16:30S 23°56' W 046°20'0 0.0
2018-Feb-21 16:00S 23°56' W 046°20'0 0.0
2018-Feb-21 15:30S 23°56' W 046°20'0 0.0
2018-Feb-21 14:59S 23°56' W 046°20'0 0.0
2018-Feb-21 14:27S 23°56' W 046°20'0 0.0
2018-Feb-21 13:59S 23°56' W 046°20'0 0.0
2018-Feb-21 13:30S 23°56' W 046°20'0 0.0
2018-Feb-21 12:59S 23°56' W 046°20'0 0.0
2018-Feb-21 12:28S 23°56' W 046°20'0 0.0
2018-Feb-21 11:59S 23°56' W 046°20'0 0.0
2018-Feb-21 11:28S 23°56' W 046°20'0 0.0
2018-Feb-21 11:00S 23°56' W 046°20'0 0.0
2018-Feb-21 10:30S 23°56' W 046°20'0 0.0
2018-Feb-21 09:57S 23°56' W 046°20'0 0.0
2018-Feb-21 09:28S 23°56' W 046°20'0 0.0
2018-Feb-21 09:00S 23°56' W 046°20'0 0.0
2018-Feb-21 08:30S 23°56' W 046°20'0 0.0
2018-Feb-21 07:59S 23°56' W 046°20'0 0.0
2018-Feb-21 07:29S 23°56' W 046°20'2 3.5
2018-Feb-21 06:56S 23°57' W 046°19'3 5.9
2018-Feb-21 06:27S 23°60' W 046°19'4 8.4
2018-Feb-21 05:58S 24°03' W 046°21'1 0.0
2018-Feb-20 04:26S 24°03' W 046°22'5 9.2
2018-Feb-20 03:57S 23°60' W 046°19'2 4.8
2018-Feb-20 03:30S 23°58' W 046°18'0 0.1
2018-Feb-20 01:14S 23°58' W 046°18'0 0.0
2018-Feb-20 00:50S 23°58' W 046°18'0 0.0
2018-Feb-20 00:20S 23°58' W 046°18'0 0.0
2018-Feb-19 23:56S 23°58' W 046°18'0 0.0
2018-Feb-19 23:26S 23°58' W 046°18'0 0.0
2018-Feb-19 22:02S 23°58' W 046°18'0 0.0
2018-Feb-19 20:26S 23°58' W 046°18'0 0.0
2018-Feb-19 18:56S 23°58' W 046°18'0 0.0
2018-Feb-19 18:14S 23°58' W 046°18'0 0.0
2018-Feb-19 17:50S 23°58' W 046°18'0 0.0
2018-Feb-19 17:26S 23°58' W 046°18'0 0.0
2018-Feb-19 16:44S 23°58' W 046°18'0 0.0
2018-Feb-19 16:26S 23°58' W 046°18'0 0.0
2018-Feb-19 15:50S 23°58' W 046°18'0 0.0
2018-Feb-19 15:14S 23°58' W 046°18'0 0.0
2018-Feb-19 14:50S 23°58' W 046°18'0 0.0
2018-Feb-19 14:20S 23°58' W 046°18'0 0.0
2018-Feb-19 13:32S 23°58' W 046°18'0 0.0
2018-Feb-19 11:38S 23°58' W 046°18'0 0.0
2018-Feb-19 11:26S 23°58' W 046°18'0 0.0
2018-Feb-19 10:44S 23°58' W 046°18'0 0.0
2018-Feb-19 10:26S 23°58' W 046°18'0 0.0
2018-Feb-19 09:44S 23°58' W 046°18'0 0.0
2018-Feb-19 09:26S 23°58' W 046°18'0 0.0
2018-Feb-19 08:20S 23°58' W 046°18'0 0.0
2018-Feb-19 07:56S 23°58' W 046°18'0 0.0
2018-Feb-19 07:26S 23°58' W 046°18'0 0.0
2018-Feb-19 06:14S 23°58' W 046°18'0 0.0
2018-Feb-19 05:02S 23°58' W 046°18'0 0.0
2018-Feb-19 04:56S 23°58' W 046°18'0 0.0
2018-Feb-19 04:26S 23°58' W 046°18'0 0.0
2018-Feb-19 03:50S 23°58' W 046°18'0 0.0
2018-Feb-19 03:26S 23°58' W 046°18'0 0.0
2018-Feb-19 02:56S 23°58' W 046°18'0 0.0
2018-Feb-19 02:26S 23°58' W 046°18'0 0.0
2018-Feb-19 01:38S 23°58' W 046°18'0 0.0
2018-Feb-19 01:26S 23°58' W 046°18'0 0.0
2018-Feb-19 00:56S 23°58' W 046°18'0 0.0
2018-Feb-19 00:26S 23°58' W 046°18'0 0.0
2018-Feb-18 23:50S 23°58' W 046°18'0 0.0
2018-Feb-18 23:26S 23°58' W 046°18'0 0.0
2018-Feb-18 22:08S 23°58' W 046°18'0 0.0
2018-Feb-18 21:44S 23°58' W 046°18'0 0.0
2018-Feb-18 21:20S 23°58' W 046°18'0 0.0
2018-Feb-18 20:44S 23°58' W 046°18'0 0.0
2018-Feb-18 19:20S 23°58' W 046°18'0 0.0
2018-Feb-18 18:44S 23°58' W 046°18'0 0.0
2018-Feb-18 18:14S 23°58' W 046°18'0 0.0
2018-Feb-18 17:44S 23°58' W 046°18'0 0.0
2018-Feb-18 17:26S 23°58' W 046°18'0 0.0
2018-Feb-18 16:56S 23°58' W 046°18'0 0.0
2018-Feb-18 16:08S 23°58' W 046°18'0 0.0
2018-Feb-18 15:56S 23°58' W 046°18'  
Track history (hours):
 
Tides and Currents Weather Stations Pressure Air Temp Water Temp Dewpoint Dewpoint Depression Visibility Wind Speed Wind Dir Waves Ship Positions

Mozu Arrow

Last reported at 2018-Feb-21 23:22 UTC. Time now 2018-Feb-23 16:47 UTC.
Position S 23°56' W 046°20'.

Length 186 m; draft 9.6 m.

Type: Cargo ship. MMSI: 309372000.

Date/timePositionNaut miles runAvg speedWind from/ knotsBaromVisibWave heightAir tempDewpointWater temp
2018-Feb-21 23:22S 23°56' W 046°20'0 0.0
2018-Feb-21 22:46S 23°56' W 046°20'0 0.0
2018-Feb-21 22:11S 23°56' W 046°20'0 0.0
2018-Feb-21 21:45S 23°56' W 046°20'0 0.0
2018-Feb-21 21:30S 23°56' W 046°20'0 0.0
2018-Feb-21 21:00S 23°56' W 046°20'0 0.0
2018-Feb-21 20:28S 23°56' W 046°20'0 0.0
2018-Feb-21 19:59S 23°56' W 046°20'0 0.0
2018-Feb-21 19:28S 23°56' W 046°20'0 0.0
2018-Feb-21 19:00S 23°56' W 046°20'0 0.0
2018-Feb-21 18:30S 23°56' W 046°20'0 0.0
2018-Feb-21 17:57S 23°56' W 046°20'0 0.0
2018-Feb-21 17:30S 23°56' W 046°20'0 0.0
2018-Feb-21 16:59S 23°56' W 046°20'0 0.0
2018-Feb-21 16:30S 23°56' W 046°20'0 0.0
2018-Feb-21 16:00S 23°56' W 046°20'0 0.0
2018-Feb-21 15:30S 23°56' W 046°20'0 0.0
2018-Feb-21 14:59S 23°56' W 046°20'0 0.0
2018-Feb-21 14:27S 23°56' W 046°20'0 0.0
2018-Feb-21 13:59S 23°56' W 046°20'0 0.0
2018-Feb-21 13:30S 23°56' W 046°20'0 0.0
2018-Feb-21 12:59S 23°56' W 046°20'0 0.0
2018-Feb-21 12:28S 23°56' W 046°20'0 0.0
2018-Feb-21 11:59S 23°56' W 046°20'0 0.0
2018-Feb-21 11:28S 23°56' W 046°20'0 0.0
2018-Feb-21 11:00S 23°56' W 046°20'0 0.0
2018-Feb-21 10:30S 23°56' W 046°20'0 0.0
2018-Feb-21 09:57S 23°56' W 046°20'0 0.0
2018-Feb-21 09:28S 23°56' W 046°20'0 0.0
2018-Feb-21 09:00S 23°56' W 046°20'0 0.0
2018-Feb-21 08:30S 23°56' W 046°20'0 0.0
2018-Feb-21 07:59S 23°56' W 046°20'0 0.0
2018-Feb-21 07:29S 23°56' W 046°20'2 3.5
2018-Feb-21 06:56S 23°57' W 046°19'3 5.9
2018-Feb-21 06:27S 23°60' W 046°19'4 8.4
2018-Feb-21 05:58S 24°03' W 046°21'1 0.0
2018-Feb-20 04:26S 24°03' W 046°22'5 9.2
2018-Feb-20 03:57S 23°60' W 046°19'2 4.8
2018-Feb-20 03:30S 23°58' W 046°18'0 0.1
2018-Feb-20 01:14S 23°58' W 046°18'0 0.0
2018-Feb-20 00:50S 23°58' W 046°18'0 0.0
2018-Feb-20 00:20S 23°58' W 046°18'0 0.0
2018-Feb-19 23:56S 23°58' W 046°18'0 0.0
2018-Feb-19 23:26S 23°58' W 046°18'0 0.0
2018-Feb-19 22:02S 23°58' W 046°18'0 0.0
2018-Feb-19 20:26S 23°58' W 046°18'0 0.0
2018-Feb-19 18:56S 23°58' W 046°18'0 0.0
2018-Feb-19 18:14S 23°58' W 046°18'0 0.0
2018-Feb-19 17:50S 23°58' W 046°18'0 0.0
2018-Feb-19 17:26S 23°58' W 046°18'0 0.0
2018-Feb-19 16:44S 23°58' W 046°18'0 0.0
2018-Feb-19 16:26S 23°58' W 046°18'0 0.0
2018-Feb-19 15:50S 23°58' W 046°18'0 0.0
2018-Feb-19 15:14S 23°58' W 046°18'0 0.0
2018-Feb-19 14:50S 23°58' W 046°18'0 0.0
2018-Feb-19 14:20S 23°58' W 046°18'0 0.0
2018-Feb-19 13:32S 23°58' W 046°18'0 0.0
2018-Feb-19 11:38S 23°58' W 046°18'0 0.0
2018-Feb-19 11:26S 23°58' W 046°18'0 0.0
2018-Feb-19 10:44S 23°58' W 046°18'0 0.0
2018-Feb-19 10:26S 23°58' W 046°18'0 0.0
2018-Feb-19 09:44S 23°58' W 046°18'0 0.0
2018-Feb-19 09:26S 23°58' W 046°18'0 0.0
2018-Feb-19 08:20S 23°58' W 046°18'0 0.0
2018-Feb-19 07:56S 23°58' W 046°18'0 0.0
2018-Feb-19 07:26S 23°58' W 046°18'0 0.0
2018-Feb-19 06:14S 23°58' W 046°18'0 0.0
2018-Feb-19 05:02S 23°58' W 046°18'0 0.0
2018-Feb-19 04:56S 23°58' W 046°18'0 0.0
2018-Feb-19 04:26S 23°58' W 046°18'0 0.0
2018-Feb-19 03:50S 23°58' W 046°18'0 0.0
2018-Feb-19 03:26S 23°58' W 046°18'0 0.0
2018-Feb-19 02:56S 23°58' W 046°18'0 0.0
2018-Feb-19 02:26S 23°58' W 046°18'0 0.0
2018-Feb-19 01:38S 23°58' W 046°18'0 0.0
2018-Feb-19 01:26S 23°58' W 046°18'0 0.0
2018-Feb-19 00:56S 23°58' W 046°18'0 0.0
2018-Feb-19 00:26S 23°58' W 046°18'0 0.0
2018-Feb-18 23:50S 23°58' W 046°18'0 0.0
2018-Feb-18 23:26S 23°58' W 046°18'0 0.0
2018-Feb-18 22:08S 23°58' W 046°18'0 0.0
2018-Feb-18 21:44S 23°58' W 046°18'0 0.0
2018-Feb-18 21:20S 23°58' W 046°18'0 0.0
2018-Feb-18 20:44S 23°58' W 046°18'0 0.0
2018-Feb-18 19:20S 23°58' W 046°18'0 0.0
2018-Feb-18 18:44S 23°58' W 046°18'0 0.0
2018-Feb-18 18:14S 23°58' W 046°18'0 0.0
2018-Feb-18 17:44S 23°58' W 046°18'0 0.0
2018-Feb-18 17:26S 23°58' W 046°18'0 0.0
2018-Feb-18 16:56S 23°58' W 046°18'0 0.0
2018-Feb-18 16:08S 23°58' W 046°18'0 0.0
2018-Feb-18 15:56S 23°58' W 046°18'  

Dump ship's entire track history